Time;durP1;ratioP1;P1;durP2;ratioP2;P2;SDS_P1;SDS_P2;PMS_P1;PMS_P2;Temp;Humidity;BMP_temperature;BMP_pressure;BME280_temperature;BME280_humidity;BME280_pressure;Samples;Min_cycle;Max_cycle;Signal;HPM_P1;HPM_P2
2022/04/17 00:00:52;;;;;;;;;;;;;;;;;;5129924;27;19933;-63
2022/04/17 00:03:21;;;;;;;;;;;;;;;;;;5130065;27;19924;-62
2022/04/17 00:05:47;;;;;;;;;;;;;;;;;;5130601;27;20569;-62
2022/04/17 00:08:14;;;;;;;;;;;;;;;;;;5133877;27;20310;-62
2022/04/17 00:10:40;;;;;;;;;;;;;;;;;;5129082;27;19934;-60
2022/04/17 00:13:06;;;;;;;;;;;;;;;;;;5130338;27;19947;-58
2022/04/17 00:15:32;;;;;;;;;;;;;;;;;;5127532;27;19935;-58
2022/04/17 00:17:58;;;;;;;;;;;;;;;;;;5129926;27;19931;-59
2022/04/17 00:20:24;;;;;;;;;;;;;;;;;;5130163;27;19927;-58
2022/04/17 00:22:50;;;;;;;;;;;;;;;;;;5129756;27;19946;-60
2022/04/17 00:25:18;;;;;;;;;;;;;;;;;;5129924;27;19934;-60
2022/04/17 00:27:44;;;;;;;;;;;;;;;;;;5129859;27;19923;-60
2022/04/17 00:30:10;;;;;;;;;;;;;;;;;;5130197;27;19927;-60
2022/04/17 00:32:36;;;;;;;;;;;;;;;;;;5125944;27;19928;-59
2022/04/17 00:35:03;;;;;;;;;;;;;;;;;;5128867;27;20023;-59
2022/04/17 00:37:29;;;;;;;;;;;;;;;;;;5129532;27;20386;-59
2022/04/17 00:39:55;;;;;;;;;;;;;;;;;;5129753;27;20376;-59
2022/04/17 00:42:21;;;;;;;;;;;;;;;;;;5129404;27;19975;-59
2022/04/17 00:44:47;;;;;;;;;;;;;;;;;;5129453;27;19923;-58
2022/04/17 00:47:16;;;;;;;;;;;;;;;;;;5128891;27;19931;-58
2022/04/17 00:49:42;;;;;;;;;;;;;;;;;;5129454;27;19933;-59
2022/04/17 00:52:08;;;;;;;;;;;;;;;;;;5130243;27;19931;-59
2022/04/17 00:54:35;;;;;;;;;;;;;;;;;;5129864;27;20400;-60
2022/04/17 00:57:01;;;;;;;;;;;;;;;;;;5129798;27;20311;-60
2022/04/17 00:59:27;;;;;;;;;;;;;;;;;;5130160;27;19935;-62
2022/04/17 01:01:53;;;;;;;;;;;;;;;;;;5128878;27;20388;-62
2022/04/17 01:04:19;;;;;;;;;;;;;;;;;;5129424;27;20435;-66
2022/04/17 01:06:46;;;;;;;;;;;;;;;;;;5129895;27;20019;-63
2022/04/17 01:09:12;;;;;;;;;;;;;;;;;;5131726;27;19923;-65
2022/04/17 01:11:39;;;;;;;;;;;;;;;;;;5129195;27;19923;-63
2022/04/17 01:14:05;;;;;;;;;;;;;;;;;;5129535;27;19939;-64
2022/04/17 01:16:32;;;;;;;;;;;;;;;;;;5129292;27;20021;-66
2022/04/17 01:19:00;;;;;;;;;;;;;;;;;;5128970;27;19952;-62
2022/04/17 01:21:27;;;;;;;;;;;;;;;;;;5124510;27;19927;-66
2022/04/17 01:26:57;;;;;;;;;;;;;;;;;;4965876;27;10000289;-62
2022/04/17 01:29:23;;;;;;;;;;;;;;;;;;5128608;27;19927;-65
2022/04/17 01:31:49;;;;;;;;;;;;;;;;;;5126148;27;20356;-66
2022/04/17 01:34:16;;;;;;;;;;;;;;;;;;5130599;27;20265;-66
2022/04/17 01:36:42;;;;;;;;;;;;;;;;;;5132088;27;19947;-65
2022/04/17 01:39:08;;;;;;;;;;;;;;;;;;5130702;27;19923;-64
2022/04/17 01:41:34;;;;;;;;;;;;;;;;;;5130298;27;19924;-64
2022/04/17 01:44:00;;;;;;;;;;;;;;;;;;5131517;27;19931;-64
2022/04/17 01:46:26;;;;;;;;;;;;;;;;;;5130168;27;19924;-65
2022/04/17 01:48:54;;;;;;;;;;;;;;;;;;5131559;27;19923;-64
2022/04/17 01:51:21;;;;;;;;;;;;;;;;;;5131246;27;19962;-65
2022/04/17 01:53:47;;;;;;;;;;;;;;;;;;5130958;27;19927;-63
2022/04/17 01:56:13;;;;;;;;;;;;;;;;;;5130426;27;19924;-63
2022/04/17 01:58:40;;;;;;;;;;;;;;;;;;5131331;27;19928;-60
2022/04/17 02:01:06;;;;;;;;;;;;;;;;;;5130476;27;19927;-60
2022/04/17 02:03:32;;;;;;;;;;;;;;;;;;5130776;27;19927;-60
2022/04/17 02:05:59;;;;;;;;;;;;;;;;;;5131075;27;19923;-60
2022/04/17 02:08:27;;;;;;;;;;;;;;;;;;5131086;27;19923;-60
2022/04/17 02:10:54;;;;;;;;;;;;;;;;;;5130160;27;20363;-60
2022/04/17 02:13:20;;;;;;;;;;;;;;;;;;5130302;27;19923;-59
2022/04/17 02:15:47;;;;;;;;;;;;;;;;;;5128419;27;19930;-60
2022/04/17 02:18:13;;;;;;;;;;;;;;;;;;5133173;27;19923;-60
2022/04/17 02:20:39;;;;;;;;;;;;;;;;;;5131949;27;19929;-63
2022/04/17 02:23:05;;;;;;;;;;;;;;;;;;5131032;27;19924;-63
2022/04/17 02:25:32;;;;;;;;;;;;;;;;;;5131070;27;19927;-63
2022/04/17 02:27:58;;;;;;;;;;;;;;;;;;5130096;27;19934;-58
2022/04/17 02:30:24;;;;;;;;;;;;;;;;;;5130065;27;19923;-64
2022/04/17 02:32:50;;;;;;;;;;;;;;;;;;5126358;27;19930;-61
2022/04/17 02:35:17;;;;;;;;;;;;;;;;;;5110598;22;19931;-60
2022/04/17 02:37:43;;;;;;;;;;;;;;;;;;5071632;28;19932;-59
2022/04/17 02:40:09;;;;;;;;;;;;;;;;;;5071003;28;19924;-61
2022/04/17 02:42:35;;;;;;;;;;;;;;;;;;5070745;28;19928;-58
2022/04/17 02:45:01;;;;;;;;;;;;;;;;;;5070651;28;20137;-58
2022/04/17 02:47:45;;;;;;;;;;;;;;;;;;5069930;28;19940;-59
2022/04/17 02:50:12;;;;;;;;;;;;;;;;;;5070817;28;20304;-59
2022/04/17 02:52:38;;;;;;;;;;;;;;;;;;5070457;28;19974;-59
2022/04/17 02:55:04;;;;;;;;;;;;;;;;;;5070095;28;19928;-57
2022/04/17 02:57:31;;;;;;;;;;;;;;;;;;5069665;28;19932;-58
2022/04/17 02:59:57;;;;;;;;;;;;;;;;;;5070099;28;19978;-59
2022/04/17 03:07:51;;;;;;;;;;;;;;;;;;5067635;28;19955;-59
2022/04/17 03:10:17;;;;;;;;;;;;;;;;;;5070112;28;20010;-59
2022/04/17 03:12:43;;;;;;;;;;;;;;;;;;5069343;28;19924;-58
2022/04/17 03:15:09;;;;;;;;;;;;;;;;;;5069281;28;19932;-59
2022/04/17 03:17:35;;;;;;;;;;;;;;;;;;5069588;28;19936;-58
2022/04/17 03:20:03;;;;;;;;;;;;;;;;;;5069710;28;19925;-59
2022/04/17 03:22:29;;;;;;;;;;;;;;;;;;5069522;28;19925;-59
2022/04/17 03:24:55;;;;;;;;;;;;;;;;;;5069336;28;19928;-60
2022/04/17 03:27:21;;;;;;;;;;;;;;;;;;5069289;28;19932;-59
2022/04/17 03:29:47;;;;;;;;;;;;;;;;;;5069239;28;19936;-58
2022/04/17 03:32:14;;;;;;;;;;;;;;;;;;5071277;28;19924;-60
2022/04/17 03:34:40;;;;;;;;;;;;;;;;;;5069665;28;19924;-58
2022/04/17 03:37:06;;;;;;;;;;;;;;;;;;5070434;28;19924;-58
2022/04/17 03:39:32;;;;;;;;;;;;;;;;;;5070161;28;19955;-58
2022/04/17 03:41:58;;;;;;;;;;;;;;;;;;5072336;28;19932;-59
2022/04/17 03:44:24;;;;;;;;;;;;;;;;;;5069063;28;19924;-59
2022/04/17 03:46:51;;;;;;;;;;;;;;;;;;5069692;28;19967;-58
2022/04/17 03:49:17;;;;;;;;;;;;;;;;;;5069104;28;19924;-59
2022/04/17 03:51:43;;;;;;;;;;;;;;;;;;5069273;28;19924;-59
2022/04/17 03:54:10;;;;;;;;;;;;;;;;;;5069442;28;19924;-59
2022/04/17 03:56:36;;;;;;;;;;;;;;;;;;5069185;28;19928;-59
2022/04/17 03:59:02;;;;;;;;;;;;;;;;;;5069557;28;20003;-60
2022/04/17 04:01:28;;;;;;;;;;;;;;;;;;5068784;28;19936;-62
2022/04/17 04:03:55;;;;;;;;;;;;;;;;;;5069169;28;19932;-65
2022/04/17 04:06:21;;;;;;;;;;;;;;;;;;5069461;28;20286;-65
2022/04/17 04:08:48;;;;;;;;;;;;;;;;;;5072664;28;19970;-65
2022/04/17 04:11:14;;;;;;;;;;;;;;;;;;5068923;28;19931;-65
2022/04/17 04:13:42;;;;;;;;;;;;;;;;;;5069084;28;19925;-63
2022/04/17 04:16:08;;;;;;;;;;;;;;;;;;5067660;28;19924;-64
2022/04/17 04:18:34;;;;;;;;;;;;;;;;;;5069333;28;19929;-64
2022/04/17 04:21:00;;;;;;;;;;;;;;;;;;5064347;28;19924;-63
2022/04/17 04:23:26;;;;;;;;;;;;;;;;;;5068157;28;19928;-64
2022/04/17 04:25:53;;;;;;;;;;;;;;;;;;5069006;28;19964;-64
2022/04/17 04:28:33;;;;;;;;;;;;;;;;;;5069300;28;19932;-63
2022/04/17 04:30:59;;;;;;;;;;;;;;;;;;5069230;28;19977;-62
2022/04/17 04:33:26;;;;;;;;;;;;;;;;;;5074604;28;20051;-63
2022/04/17 04:35:52;;;;;;;;;;;;;;;;;;5072602;28;20079;-62
2022/04/17 04:38:18;;;;;;;;;;;;;;;;;;5072690;28;19924;-62
2022/04/17 04:40:44;;;;;;;;;;;;;;;;;;5072177;28;19951;-62
2022/04/17 04:43:12;;;;;;;;;;;;;;;;;;5071855;28;20347;-62
2022/04/17 04:51:17;;;;;;;;;;;;;;;;;;5051660;28;19934;-61
2022/04/17 04:53:43;;;;;;;;;;;;;;;;;;5072448;28;20027;-61
2022/04/17 04:56:09;;;;;;;;;;;;;;;;;;5072188;28;19924;-62
2022/04/17 04:58:36;;;;;;;;;;;;;;;;;;5072690;28;19924;-62
2022/04/17 05:01:02;;;;;;;;;;;;;;;;;;5071931;28;19978;-65
2022/04/17 05:03:28;;;;;;;;;;;;;;;;;;5072309;28;19947;-62
2022/04/17 05:05:54;;;;;;;;;;;;;;;;;;5072348;28;19931;-62
2022/04/17 05:08:23;;;;;;;;;;;;;;;;;;5075111;28;19931;-63
2022/04/17 05:10:49;;;;;;;;;;;;;;;;;;5071609;28;20333;-63
2022/04/17 05:13:15;;;;;;;;;;;;;;;;;;5072001;28;19932;-62
2022/04/17 05:15:41;;;;;;;;;;;;;;;;;;5072115;28;19925;-63
2022/04/17 05:18:07;;;;;;;;;;;;;;;;;;5072220;28;20298;-63
2022/04/17 05:20:33;;;;;;;;;;;;;;;;;;5071848;28;20305;-61
2022/04/17 05:23:04;;;;;;;;;;;;;;;;;;5071644;28;19928;-62
2022/04/17 05:25:30;;;;;;;;;;;;;;;;;;5063733;28;19929;-60
2022/04/17 05:27:56;;;;;;;;;;;;;;;;;;5073780;28;19928;-64
2022/04/17 05:30:22;;;;;;;;;;;;;;;;;;5071444;28;19924;-64
2022/04/17 05:32:48;;;;;;;;;;;;;;;;;;5073848;28;20377;-63
2022/04/17 05:35:14;;;;;;;;;;;;;;;;;;5071857;28;20373;-63
2022/04/17 05:37:40;;;;;;;;;;;;;;;;;;5072428;28;20306;-63
2022/04/17 05:40:07;;;;;;;;;;;;;;;;;;5071681;28;20160;-61
2022/04/17 05:42:33;;;;;;;;;;;;;;;;;;5071188;28;19929;-62
2022/04/17 05:44:59;;;;;;;;;;;;;;;;;;5071080;28;20296;-61
2022/04/17 05:47:25;;;;;;;;;;;;;;;;;;5071005;28;19924;-62
2022/04/17 05:49:52;;;;;;;;;;;;;;;;;;5071482;28;19932;-62
2022/04/17 05:52:18;;;;;;;;;;;;;;;;;;5071105;28;20019;-62
2022/04/17 05:54:45;;;;;;;;;;;;;;;;;;5066707;28;19932;-64
2022/04/17 05:57:11;;;;;;;;;;;;;;;;;;5070660;28;19924;-62
2022/04/17 05:59:37;;;;;;;;;;;;;;;;;;5071037;28;19936;-62
2022/04/17 06:02:03;;;;;;;;;;;;;;;;;;5070234;28;19924;-62
2022/04/17 06:04:29;;;;;;;;;;;;;;;;;;5071060;28;19925;-62
2022/04/17 06:06:55;;;;;;;;;;;;;;;;;;5070965;28;19931;-62
2022/04/17 06:09:22;;;;;;;;;;;;;;;;;;5071345;28;20028;-62
2022/04/17 06:11:48;;;;;;;;;;;;;;;;;;5070812;28;20007;-62
2022/04/17 06:14:14;;;;;;;;;;;;;;;;;;5073371;28;19943;-63
2022/04/17 06:16:40;;;;;;;;;;;;;;;;;;5070578;28;20377;-62
2022/04/17 06:19:09;;;;;;;;;;;;;;;;;;5071988;28;20262;-62
2022/04/17 06:21:35;;;;;;;;;;;;;;;;;;5070133;28;19925;-62
2022/04/17 06:24:01;;;;;;;;;;;;;;;;;;5071297;28;19946;-64
2022/04/17 06:26:27;;;;;;;;;;;;;;;;;;5070734;28;19928;-63
2022/04/17 06:28:53;;;;;;;;;;;;;;;;;;5070955;28;19936;-62
2022/04/17 06:31:19;;;;;;;;;;;;;;;;;;5070205;28;19925;-63
2022/04/17 06:33:45;;;;;;;;;;;;;;;;;;5070828;28;19925;-63
2022/04/17 06:36:12;;;;;;;;;;;;;;;;;;5070616;28;19925;-62
2022/04/17 06:38:38;;;;;;;;;;;;;;;;;;5071016;28;19925;-65
2022/04/17 06:41:04;;;;;;;;;;;;;;;;;;5070799;28;19924;-65
2022/04/17 06:43:30;;;;;;;;;;;;;;;;;;5070991;28;19928;-63
2022/04/17 06:45:56;;;;;;;;;;;;;;;;;;5071170;28;19928;-66
2022/04/17 06:48:22;;;;;;;;;;;;;;;;;;5070525;28;19932;-65
2022/04/17 06:50:49;;;;;;;;;;;;;;;;;;5070760;28;19932;-64
2022/04/17 06:53:15;;;;;;;;;;;;;;;;;;5071156;28;19931;-65
2022/04/17 06:55:41;;;;;;;;;;;;;;;;;;5070039;28;19924;-64
2022/04/17 06:58:10;;;;;;;;;;;;;;;;;;5070934;28;20389;-64
2022/04/17 07:00:37;;;;;;;;;;;;;;;;;;5069631;28;19952;-64
2022/04/17 07:03:03;;;;;;;;;;;;;;;;;;5070072;28;19971;-64
2022/04/17 07:05:29;;;;;;;;;;;;;;;;;;5070767;28;19932;-63
2022/04/17 07:07:55;;;;;;;;;;;;;;;;;;5073554;28;19924;-63
2022/04/17 07:10:21;;;;;;;;;;;;;;;;;;5070590;28;19924;-64
2022/04/17 07:12:48;;;;;;;;;;;;;;;;;;5070948;28;19932;-65
2022/04/17 07:15:15;;;;;;;;;;;;;;;;;;5069665;28;19931;-66
2022/04/17 07:17:41;;;;;;;;;;;;;;;;;;5069860;28;19928;-65
2022/04/17 07:20:07;;;;;;;;;;;;;;;;;;5070594;28;19990;-65
2022/04/17 07:22:33;;;;;;;;;;;;;;;;;;5068290;28;19940;-66
2022/04/17 07:25:01;;;;;;;;;;;;;;;;;;5068602;28;19928;-66
2022/04/17 07:27:27;;;;;;;;;;;;;;;;;;5068787;28;19924;-66
2022/04/17 07:29:53;;;;;;;;;;;;;;;;;;5069628;28;19924;-66
2022/04/17 07:32:21;;;;;;;;;;;;;;;;;;5071443;28;19986;-65
2022/04/17 07:34:47;;;;;;;;;;;;;;;;;;5069561;28;19928;-65
2022/04/17 07:37:17;;;;;;;;;;;;;;;;;;5069464;28;19931;-66
2022/04/17 07:39:43;;;;;;;;;;;;;;;;;;5069733;28;19924;-65
2022/04/17 07:42:19;;;;;;;;;;;;;;;;;;5069039;28;19931;-66
2022/04/17 07:44:45;;;;;;;;;;;;;;;;;;5064011;28;19978;-65
2022/04/17 07:47:11;;;;;;;;;;;;;;;;;;5067607;28;19925;-65
2022/04/17 07:49:37;;;;;;;;;;;;;;;;;;5067872;28;19929;-65
2022/04/17 07:52:04;;;;;;;;;;;;;;;;;;5067605;28;19924;-65
2022/04/17 07:54:30;;;;;;;;;;;;;;;;;;5068067;28;20440;-65
2022/04/17 07:56:56;;;;;;;;;;;;;;;;;;5067983;28;19924;-65
2022/04/17 07:59:24;;;;;;;;;;;;;;;;;;5068510;28;20034;-63
2022/04/17 08:01:51;;;;;;;;;;;;;;;;;;5068604;28;19924;-65
2022/04/17 08:04:17;;;;;;;;;;;;;;;;;;5069149;28;20424;-66
2022/04/17 08:06:43;;;;;;;;;;;;;;;;;;5069856;28;20278;-66
2022/04/17 08:09:09;;;;;;;;;;;;;;;;;;5071693;28;19925;-66
2022/04/17 08:11:37;;;;;;;;;;;;;;;;;;5072943;28;19924;-66
2022/04/17 08:14:03;;;;;;;;;;;;;;;;;;5067735;28;19974;-65
2022/04/17 08:16:30;;;;;;;;;;;;;;;;;;5072665;28;19928;-65
2022/04/17 08:18:56;;;;;;;;;;;;;;;;;;5073010;28;19924;-67
2022/04/17 08:21:22;;;;;;;;;;;;;;;;;;5069914;28;19925;-66
2022/04/17 08:23:48;;;;;;;;;;;;;;;;;;5071617;28;19951;-64
2022/04/17 08:26:16;;;;;;;;;;;;;;;;;;5072412;28;19931;-64
2022/04/17 08:28:42;;;;;;;;;;;;;;;;;;5072092;28;19924;-64
2022/04/17 08:31:10;;;;;;;;;;;;;;;;;;5071815;28;19936;-67
2022/04/17 08:33:36;;;;;;;;;;;;;;;;;;5074518;28;19930;-65
2022/04/17 08:36:04;;;;;;;;;;;;;;;;;;5085685;22;20324;-73
2022/04/17 08:38:30;;;;;;;;;;;;;;;;;;5072599;28;19970;-73
2022/04/17 08:40:56;;;;;;;;;;;;;;;;;;5072747;28;19924;-73
2022/04/17 08:43:22;;;;;;;;;;;;;;;;;;5072543;28;19933;-73
2022/04/17 08:45:50;;;;;;;;;;;;;;;;;;5073186;28;19932;-73
2022/04/17 08:48:16;;;;;;;;;;;;;;;;;;5071390;28;19924;-72
2022/04/17 08:50:43;;;;;;;;;;;;;;;;;;5073169;28;20109;-72
2022/04/17 08:53:09;;;;;;;;;;;;;;;;;;5072647;28;19928;-73
2022/04/17 08:55:35;;;;;;;;;;;;;;;;;;5072628;28;19928;-73
2022/04/17 08:58:01;;;;;;;;;;;;;;;;;;5069540;28;19929;-73
2022/04/17 09:00:28;;;;;;;;;;;;;;;;;;5076071;28;20343;-73
2022/04/17 09:02:54;;;;;;;;;;;;;;;;;;5077281;28;20355;-72
2022/04/17 09:05:20;;;;;;;;;;;;;;;;;;5076950;28;19925;-71
2022/04/17 09:07:47;;;;;;;;;;;;;;;;;;5078328;28;19931;-73
2022/04/17 09:10:13;;;;;;;;;;;;;;;;;;5069886;28;20417;-72
2022/04/17 09:12:39;;;;;;;;;;;;;;;;;;5069058;28;19933;-72
2022/04/17 09:15:05;;;;;;;;;;;;;;;;;;5071807;28;19969;-73
2022/04/17 09:17:32;;;;;;;;;;;;;;;;;;5072165;28;19924;-72
2022/04/17 09:19:58;;;;;;;;;;;;;;;;;;5072268;28;19932;-72
2022/04/17 09:22:25;;;;;;;;;;;;;;;;;;5068412;28;19931;-73
2022/04/17 09:24:52;;;;;;;;;;;;;;;;;;5072407;28;19924;-72
2022/04/17 09:27:18;;;;;;;;;;;;;;;;;;5075469;28;19932;-72
2022/04/17 09:29:44;;;;;;;;;;;;;;;;;;5074600;28;19924;-73
2022/04/17 09:32:10;;;;;;;;;;;;;;;;;;5067185;28;19932;-72
2022/04/17 09:34:36;;;;;;;;;;;;;;;;;;5068482;28;19931;-72
2022/04/17 09:37:02;;;;;;;;;;;;;;;;;;5072005;28;19931;-72
2022/04/17 09:39:28;;;;;;;;;;;;;;;;;;5071711;28;19924;-73
2022/04/17 09:41:55;;;;;;;;;;;;;;;;;;5058568;28;20340;-72
2022/04/17 09:44:21;;;;;;;;;;;;;;;;;;5072277;28;19948;-72
2022/04/17 09:46:47;;;;;;;;;;;;;;;;;;5071702;28;19954;-72
2022/04/17 09:49:13;;;;;;;;;;;;;;;;;;5066682;28;20372;-72
2022/04/17 09:51:39;;;;;;;;;;;;;;;;;;5070973;28;19928;-72
2022/04/17 09:54:06;;;;;;;;;;;;;;;;;;5071407;28;19925;-72
2022/04/17 09:56:32;;;;;;;;;;;;;;;;;;5070995;28;20419;-73
2022/04/17 09:58:59;;;;;;;;;;;;;;;;;;5062270;28;19928;-72
2022/04/17 10:01:25;;;;;;;;;;;;;;;;;;5071499;28;19928;-73
2022/04/17 10:03:51;;;;;;;;;;;;;;;;;;5070457;28;19925;-72
2022/04/17 10:06:17;;;;;;;;;;;;;;;;;;5072349;28;19935;-72
2022/04/17 10:08:44;;;;;;;;;;;;;;;;;;5072027;28;20409;-72
2022/04/17 10:11:11;;;;;;;;;;;;;;;;;;5071650;28;19928;-72
2022/04/17 10:13:38;;;;;;;;;;;;;;;;;;5069571;28;19969;-73
2022/04/17 10:16:04;;;;;;;;;;;;;;;;;;5065679;28;20165;-72
2022/04/17 10:18:30;;;;;;;;;;;;;;;;;;5069300;28;20385;-72
2022/04/17 10:20:57;;;;;;;;;;;;;;;;;;5065112;28;19980;-70
2022/04/17 10:23:23;;;;;;;;;;;;;;;;;;5070773;28;19974;-70
2022/04/17 10:25:49;;;;;;;;;;;;;;;;;;5069379;28;19967;-70
2022/04/17 10:28:15;;;;;;;;;;;;;;;;;;5071690;28;19925;-69
2022/04/17 10:30:41;;;;;;;;;;;;;;;;;;5070684;28;19929;-69
2022/04/17 10:33:08;;;;;;;;;;;;;;;;;;5069243;28;19928;-69
2022/04/17 10:35:34;;;;;;;;;;;;;;;;;;5069938;28;20291;-69
2022/04/17 10:38:01;;;;;;;;;;;;;;;;;;5068907;28;20304;-70
2022/04/17 10:40:27;;;;;;;;;;;;;;;;;;5064501;28;20344;-70
2022/04/17 10:42:53;;;;;;;;;;;;;;;;;;5070815;28;20090;-69
2022/04/17 10:45:20;;;;;;;;;;;;;;;;;;5070795;28;19932;-70
2022/04/17 10:47:46;;;;;;;;;;;;;;;;;;5068342;28;19932;-69
2022/04/17 10:50:13;;;;;;;;;;;;;;;;;;5069551;28;20385;-71
2022/04/17 10:52:41;;;;;;;;;;;;;;;;;;5070016;28;19936;-69
2022/04/17 10:55:08;;;;;;;;;;;;;;;;;;5063228;28;20066;-70
2022/04/17 10:57:34;;;;;;;;;;;;;;;;;;5069742;28;19924;-69
2022/04/17 11:00:00;;;;;;;;;;;;;;;;;;5070259;28;19925;-69
2022/04/17 11:02:26;;;;;;;;;;;;;;;;;;5072477;28;20377;-69
2022/04/17 11:04:53;;;;;;;;;;;;;;;;;;5069809;28;20308;-70
2022/04/17 11:07:19;;;;;;;;;;;;;;;;;;5070328;28;19936;-69
2022/04/17 11:09:46;;;;;;;;;;;;;;;;;;5070673;28;19924;-70
2022/04/17 11:12:12;;;;;;;;;;;;;;;;;;5069825;28;19968;-69
2022/04/17 11:14:39;;;;;;;;;;;;;;;;;;5070358;28;19924;-69
2022/04/17 11:17:08;;;;;;;;;;;;;;;;;;5070203;28;19948;-69
2022/04/17 11:19:34;;;;;;;;;;;;;;;;;;5068474;28;19924;-69
2022/04/17 11:22:08;;;;;;;;;;;;;;;;;;5070700;28;20199;-69
2022/04/17 11:24:43;;;;;;;;;;;;;;;;;;5064412;28;19924;-70
2022/04/17 11:27:09;;;;;;;;;;;;;;;;;;5066693;28;20487;-70
2022/04/17 11:29:35;;;;;;;;;;;;;;;;;;5068893;28;19932;-70
2022/04/17 11:32:01;;;;;;;;;;;;;;;;;;5070393;28;19924;-70
2022/04/17 11:34:28;;;;;;;;;;;;;;;;;;5071521;28;19936;-70
2022/04/17 11:36:54;;;;;;;;;;;;;;;;;;5071440;28;20328;-70
2022/04/17 11:39:20;;;;;;;;;;;;;;;;;;5070270;28;20309;-70
2022/04/17 11:41:46;;;;;;;;;;;;;;;;;;5068053;28;19944;-70
2022/04/17 11:44:12;;;;;;;;;;;;;;;;;;5061474;28;19931;-70
2022/04/17 11:46:38;;;;;;;;;;;;;;;;;;5067107;28;19936;-70
2022/04/17 11:49:04;;;;;;;;;;;;;;;;;;5069673;28;19931;-69
2022/04/17 11:51:31;;;;;;;;;;;;;;;;;;5069789;28;19935;-70
2022/04/17 11:53:57;;;;;;;;;;;;;;;;;;5067671;28;19948;-70
2022/04/17 11:56:23;;;;;;;;;;;;;;;;;;5066821;28;19931;-70
2022/04/17 11:58:49;;;;;;;;;;;;;;;;;;5069643;28;19929;-71
2022/04/17 12:01:15;;;;;;;;;;;;;;;;;;5069613;28;19924;-70
2022/04/17 12:03:42;;;;;;;;;;;;;;;;;;5066526;28;19936;-70
2022/04/17 12:06:09;;;;;;;;;;;;;;;;;;5061966;28;20452;-70
2022/04/17 12:08:36;;;;;;;;;;;;;;;;;;5062731;28;19925;-70
2022/04/17 12:11:04;;;;;;;;;;;;;;;;;;5069370;28;20300;-70
2022/04/17 12:13:30;;;;;;;;;;;;;;;;;;5069604;28;19929;-69
2022/04/17 12:15:56;;;;;;;;;;;;;;;;;;5068330;28;19925;-70
2022/04/17 12:18:23;;;;;;;;;;;;;;;;;;5069552;28;19932;-70
2022/04/17 12:20:49;;;;;;;;;;;;;;;;;;5064333;28;19925;-70
2022/04/17 12:23:15;;;;;;;;;;;;;;;;;;5061044;28;19936;-70
2022/04/17 12:25:41;;;;;;;;;;;;;;;;;;5058118;28;20278;-71
2022/04/17 12:28:08;;;;;;;;;;;;;;;;;;5066967;28;19932;-72
2022/04/17 12:30:34;;;;;;;;;;;;;;;;;;5069559;28;20273;-72
2022/04/17 12:33:03;;;;;;;;;;;;;;;;;;5069480;28;19928;-71
2022/04/17 12:35:29;;;;;;;;;;;;;;;;;;5069926;28;20269;-71
2022/04/17 12:37:55;;;;;;;;;;;;;;;;;;5070256;28;19928;-71
2022/04/17 12:40:21;;;;;;;;;;;;;;;;;;5069754;28;19931;-72
2022/04/17 12:42:47;;;;;;;;;;;;;;;;;;5069525;28;20384;-77
2022/04/17 12:45:16;;;;;;;;;;;;;;;;;;5069187;28;19979;-70
2022/04/17 12:47:42;;;;;;;;;;;;;;;;;;5068717;28;19924;-70
2022/04/17 12:50:08;;;;;;;;;;;;;;;;;;5069327;28;19928;-70
2022/04/17 12:52:34;;;;;;;;;;;;;;;;;;5069859;28;19925;-70
2022/04/17 12:55:01;;;;;;;;;;;;;;;;;;5073033;28;19939;-70
2022/04/17 12:57:27;;;;;;;;;;;;;;;;;;5072340;28;19963;-70
2022/04/17 12:59:54;;;;;;;;;;;;;;;;;;5073061;28;20353;-70
2022/04/17 13:02:23;;;;;;;;;;;;;;;;;;5062830;28;19928;-69
2022/04/17 13:04:49;;;;;;;;;;;;;;;;;;5073030;28;20355;-69
2022/04/17 13:07:15;;;;;;;;;;;;;;;;;;5073042;28;19931;-70
2022/04/17 13:09:42;;;;;;;;;;;;;;;;;;5068441;28;20439;-69
2022/04/17 13:12:10;;;;;;;;;;;;;;;;;;5063438;28;19970;-69
2022/04/17 13:14:36;;;;;;;;;;;;;;;;;;5073005;28;19963;-69
2022/04/17 13:17:02;;;;;;;;;;;;;;;;;;5070849;28;19928;-69
2022/04/17 13:19:28;;;;;;;;;;;;;;;;;;5075287;28;19924;-69
2022/04/17 13:21:54;;;;;;;;;;;;;;;;;;5073642;28;19925;-70
2022/04/17 13:24:20;;;;;;;;;;;;;;;;;;5072171;28;19943;-69
2022/04/17 13:26:47;;;;;;;;;;;;;;;;;;5068263;28;19933;-70
2022/04/17 13:29:13;;;;;;;;;;;;;;;;;;5070901;28;19924;-69
2022/04/17 13:31:39;;;;;;;;;;;;;;;;;;5071041;28;19928;-69
2022/04/17 13:34:05;;;;;;;;;;;;;;;;;;5071928;28;19924;-69
2022/04/17 13:36:31;;;;;;;;;;;;;;;;;;5071896;28;19930;-69
2022/04/17 13:38:57;;;;;;;;;;;;;;;;;;5071866;28;19928;-70
2022/04/17 13:41:24;;;;;;;;;;;;;;;;;;5071393;28;19994;-70
2022/04/17 13:43:50;;;;;;;;;;;;;;;;;;5072022;28;19944;-70
2022/04/17 13:46:16;;;;;;;;;;;;;;;;;;5071766;28;19975;-70
2022/04/17 13:48:43;;;;;;;;;;;;;;;;;;5071786;28;19924;-70
2022/04/17 13:51:09;;;;;;;;;;;;;;;;;;5071794;28;19924;-69
2022/04/17 13:53:35;;;;;;;;;;;;;;;;;;5071701;28;19924;-70
2022/04/17 13:56:02;;;;;;;;;;;;;;;;;;5070985;28;19932;-70
2022/04/17 13:58:28;;;;;;;;;;;;;;;;;;5070307;28;19924;-70
2022/04/17 14:00:55;;;;;;;;;;;;;;;;;;5071686;28;19979;-70
2022/04/17 14:03:21;;;;;;;;;;;;;;;;;;5070294;28;20019;-70
2022/04/17 14:05:47;;;;;;;;;;;;;;;;;;5070817;28;19924;-70
2022/04/17 14:08:13;;;;;;;;;;;;;;;;;;5061396;28;19928;-70
2022/04/17 14:10:40;;;;;;;;;;;;;;;;;;5070611;28;19925;-70
2022/04/17 14:13:06;;;;;;;;;;;;;;;;;;5071420;28;19931;-69
2022/04/17 14:15:32;;;;;;;;;;;;;;;;;;5068956;28;20285;-70
2022/04/17 14:17:58;;;;;;;;;;;;;;;;;;5070843;28;19931;-69
2022/04/17 14:20:25;;;;;;;;;;;;;;;;;;5071516;28;19924;-69
2022/04/17 14:22:52;;;;;;;;;;;;;;;;;;5071302;28;19924;-69
2022/04/17 14:25:18;;;;;;;;;;;;;;;;;;5066125;28;20381;-70
2022/04/17 14:27:44;;;;;;;;;;;;;;;;;;4710211;28;10000337;-70
2022/04/17 14:30:10;;;;;;;;;;;;;;;;;;5061977;28;20150;-69
2022/04/17 14:32:36;;;;;;;;;;;;;;;;;;5055694;28;19935;-69
2022/04/17 14:35:03;;;;;;;;;;;;;;;;;;5069828;28;19928;-69
2022/04/17 14:37:29;;;;;;;;;;;;;;;;;;5072053;22;19925;-67
2022/04/17 14:39:55;;;;;;;;;;;;;;;;;;5040298;28;19929;-67
2022/04/17 14:42:21;;;;;;;;;;;;;;;;;;5038796;28;20412;-67
2022/04/17 14:44:47;;;;;;;;;;;;;;;;;;5047251;28;19924;-67
2022/04/17 14:47:13;;;;;;;;;;;;;;;;;;5047973;28;19929;-67
2022/04/17 14:49:42;;;;;;;;;;;;;;;;;;5046151;28;20458;-67
2022/04/17 14:52:08;;;;;;;;;;;;;;;;;;5046983;28;19925;-67
2022/04/17 14:54:34;;;;;;;;;;;;;;;;;;5045511;28;20301;-67
2022/04/17 14:57:00;;;;;;;;;;;;;;;;;;5046885;28;19925;-67
2022/04/17 14:59:26;;;;;;;;;;;;;;;;;;5047285;28;19928;-67
2022/04/17 15:01:53;;;;;;;;;;;;;;;;;;5047730;28;19925;-67
2022/04/17 15:04:21;;;;;;;;;;;;;;;;;;5045771;28;20153;-67
2022/04/17 15:06:47;;;;;;;;;;;;;;;;;;5042922;28;19978;-67
2022/04/17 15:09:13;;;;;;;;;;;;;;;;;;5048258;28;20378;-67
2022/04/17 15:11:40;;;;;;;;;;;;;;;;;;5047481;28;20011;-68
2022/04/17 15:14:06;;;;;;;;;;;;;;;;;;5046532;28;19929;-66
2022/04/17 15:16:34;;;;;;;;;;;;;;;;;;5040707;28;19929;-66
2022/04/17 15:19:00;;;;;;;;;;;;;;;;;;5045884;28;19956;-67
2022/04/17 15:21:27;;;;;;;;;;;;;;;;;;5043722;28;19935;-68
2022/04/17 15:23:56;;;;;;;;;;;;;;;;;;5046985;28;19960;-67
2022/04/17 15:26:32;;;;;;;;;;;;;;;;;;5046392;28;19924;-67
2022/04/17 15:28:58;;;;;;;;;;;;;;;;;;5042945;28;19932;-67
2022/04/17 15:31:24;;;;;;;;;;;;;;;;;;5045932;28;19925;-67
2022/04/17 15:33:50;;;;;;;;;;;;;;;;;;5046135;28;19925;-67
2022/04/17 15:36:18;;;;;;;;;;;;;;;;;;5045518;28;20389;-67
2022/04/17 15:38:47;;;;;;;;;;;;;;;;;;5046157;28;19932;-66
2022/04/17 15:41:13;;;;;;;;;;;;;;;;;;5046286;28;20353;-66
2022/04/17 15:49:10;;;;;;;;;;;;;;;;;;5046675;28;20289;-67
2022/04/17 15:51:36;;;;;;;;;;;;;;;;;;5045025;28;20024;-68
2022/04/17 15:54:03;;;;;;;;;;;;;;;;;;5046498;28;19935;-66
2022/04/17 15:56:29;;;;;;;;;;;;;;;;;;5045143;28;19968;-66
2022/04/17 15:58:57;;;;;;;;;;;;;;;;;;5047455;28;19950;-67
2022/04/17 16:01:24;;;;;;;;;;;;;;;;;;5045694;28;19961;-67
2022/04/17 16:03:50;;;;;;;;;;;;;;;;;;5046408;28;19949;-67
2022/04/17 16:06:16;;;;;;;;;;;;;;;;;;5045994;28;19924;-67
2022/04/17 16:08:42;;;;;;;;;;;;;;;;;;5047862;28;19932;-67
2022/04/17 16:11:08;;;;;;;;;;;;;;;;;;5046011;28;19972;-67
2022/04/17 16:13:34;;;;;;;;;;;;;;;;;;5045417;28;19925;-69
2022/04/17 16:16:00;;;;;;;;;;;;;;;;;;5045243;28;19925;-67
2022/04/17 16:18:27;;;;;;;;;;;;;;;;;;5042766;28;20036;-68
2022/04/17 16:20:54;;;;;;;;;;;;;;;;;;5044980;28;19925;-66
2022/04/17 16:23:20;;;;;;;;;;;;;;;;;;5047653;28;19932;-66
2022/04/17 16:25:48;;;;;;;;;;;;;;;;;;5040073;28;19932;-66
2022/04/17 16:28:14;;;;;;;;;;;;;;;;;;5051454;28;19929;-67
2022/04/17 16:30:40;;;;;;;;;;;;;;;;;;5052488;28;20292;-67
2022/04/17 16:33:07;;;;;;;;;;;;;;;;;;5052434;28;19929;-68
2022/04/17 16:35:35;;;;;;;;;;;;;;;;;;5051563;28;19935;-67
2022/04/17 16:38:01;;;;;;;;;;;;;;;;;;5052162;28;20032;-67
2022/04/17 16:40:27;;;;;;;;;;;;;;;;;;5046006;28;20016;-67
2022/04/17 16:42:53;;;;;;;;;;;;;;;;;;5043332;28;19925;-67
2022/04/17 16:45:20;;;;;;;;;;;;;;;;;;5044822;28;19951;-67
2022/04/17 16:47:46;;;;;;;;;;;;;;;;;;5057609;28;20000;-68
2022/04/17 16:50:13;;;;;;;;;;;;;;;;;;5052785;28;19924;-67
2022/04/17 16:52:39;;;;;;;;;;;;;;;;;;5051348;28;20304;-67
2022/04/17 16:55:06;;;;;;;;;;;;;;;;;;5049674;28;19929;-67
2022/04/17 17:00:24;;;;;;;;;;;;;;;;;;5012033;28;19932;-67
2022/04/17 17:02:51;;;;;;;;;;;;;;;;;;5047722;28;19928;-67